Amagansett, NY

10:21 AM EST on January 26, 2015 (GMT -0500)
APRSWXNET Amagansett NY US | Change Station
CLOSE
Current Station
Personal Weather Station
Location: Amagansett, NY
Elevation: 19 ft
Nearby Weather Stations

Elev 19 ft 40.98 °N, 72.12 °W | Updated 51 minutes ago

Overcast
Overcast
25 °F
Feels Like 15 °F
N
10
Wind Variable Wind from ENE
Gusts 0.0 mph

Today
High -- | Low -- °F
--% Chance of Precip.
Yesterday
High -- | Low -- °F
Precip. -- in
7:04 AM 4:57 PM
Waxing Crescent, 44% visible
Pressure 30.05 in
Visibility 7.0 miles
Clouds Overcast 3500 ft
Windchill 15 °F
Dew Point 21 °F
Humidity 85%
Rainfall -999.00 in
Snow Depth Not available.
UV 0 out of 12
Pollen .10 out of 12
Air Quality Not available.
Flu Activity Not available.
METAR KHTO 261350Z 06008KT 7SM -SN OVC035 M04/M07 A3005

More Conditions Fewer Conditions

Pressure 30.05 in
Visibility 7.0 miles
Clouds Overcast 3500 ft
Windchill 15 °F
Dew Point 21 °F
Humidity 85%
Rainfall -999.00 in
Snow Depth Not available.
UV 0 out of 12
Pollen .10 out of 12
Air Quality Not available.
Flu Activity Not available.
METAR KHTO 261350Z 06008KT 7SM -SN OVC035 M04/M07 A3005

More Conditions Fewer Conditions

10-Day Weather Forecast

Almanac

Astronomy

Jan. 26, 2015 Rise Set
Actual Time
Civil Twilight
Nautical Twilight
Astronomical Twilight
Moon
Length of Visible Light
Length of Day
Tomorrow will be .
, % of the Moon is Illuminated

Today's Extremes

State Highs State Lows

Community

WunderPhotos

Upload Photos

1,790,241 photos uploaded!

WunderBlogs® & News

Nearby

Air Quality

  Air Quality AQ Index Pollutant
Not available.

Snow Depth

Station Depth Elevation

Earthquake Activity

City Distance Mag. Time & Date
Minimum magnitude displayed is 2.5.

Coastal Water Temperatures

Place Temperature

Nearby Weather Stations